Fairhope, Ohio
Current Conditions -  °F | °C
As of 11:51 AM on Thursday 27 Nov 2014 (Local Time) from KCAK Reporting Station
Light Snow Light Snow  
Wind Chill: 23°   Ceiling: 1300
Heat Index: 32°   Visibility: 3mi
Dew Point: 26°   Wind: 13mph
Humidity: 79%   Direction: 320°NW
Pressure: 30.11"   Gusts: NA
Location:  40.8665°N, 81.2396°W
Report Text: KCAK 271651Z 32011KT 3SM -SN BKN013 OVC026 00/M03 A3011 RMK AO2 SLP209 P0000 T00001033
Loading
Personal Weather Stations






























Interactive Weather Map New forecast layout! Learn more

10-Day Weather Forecast

Advertisements
Track Severe Weather on mobile